createdAt,value
2017-05-29T00:00:23.005Z,18.80
2017-05-29T00:02:51.327Z,19.82
2017-05-29T00:05:19.656Z,18.00
2017-05-29T00:07:48.345Z,17.95
2017-05-29T00:10:16.674Z,20.28
2017-05-29T00:12:45.010Z,17.28
2017-05-29T00:15:13.519Z,18.68
2017-05-29T00:17:42.027Z,19.16
2017-05-29T00:20:10.563Z,16.93
2017-05-29T00:22:38.894Z,17.87
2017-05-29T00:25:07.223Z,18.35
2017-05-29T00:27:36.006Z,19.57
2017-05-29T00:30:04.336Z,18.64
2017-05-29T00:32:32.673Z,18.50
2017-05-29T00:35:01.117Z,15.40
2017-05-29T00:37:29.825Z,17.22
2017-05-29T00:39:58.150Z,17.68
2017-05-29T00:42:26.478Z,19.52
2017-05-29T00:44:54.847Z,21.17
2017-05-29T00:47:23.174Z,21.32
2017-05-29T00:49:51.534Z,19.85
2017-05-29T00:52:19.875Z,19.08
2017-05-29T00:54:47.869Z,20.00
2017-05-29T00:57:16.198Z,20.08
2017-05-29T00:59:50.021Z,19.32
2017-05-29T01:02:18.327Z,19.15
2017-05-29T01:04:46.669Z,19.48
2017-05-29T01:07:15.066Z,18.73
2017-05-29T01:09:43.399Z,19.07
2017-05-29T01:12:11.735Z,18.28
2017-05-29T01:14:45.325Z,19.30
2017-05-29T01:17:13.663Z,19.03
2017-05-29T01:19:41.994Z,19.45
2017-05-29T01:22:10.429Z,18.22
2017-05-29T01:24:38.790Z,17.93
2017-05-29T01:27:07.125Z,17.43
2017-05-29T01:29:40.850Z,18.77
2017-05-29T01:32:09.171Z,19.80
2017-05-29T01:34:37.495Z,19.03
2017-05-29T01:37:05.881Z,19.50
2017-05-29T01:39:34.211Z,20.62
2017-05-29T01:42:03.335Z,18.83
2017-05-29T01:44:31.672Z,18.87
2017-05-29T01:46:59.992Z,19.82
2017-05-29T01:49:28.682Z,18.55
2017-05-29T01:51:57.010Z,18.77
2017-05-29T01:54:25.333Z,19.48
2017-05-29T01:56:53.702Z,19.53
2017-05-29T01:59:22.027Z,20.30
2017-05-29T02:01:50.394Z,19.73
2017-05-29T02:04:18.719Z,19.73
2017-05-29T02:06:47.046Z,20.80
2017-05-29T02:09:15.943Z,20.90
2017-05-29T02:11:44.275Z,19.62
2017-05-29T02:14:12.603Z,19.80
2017-05-29T02:16:41.285Z,21.00
2017-05-29T02:19:09.606Z,19.83
2017-05-29T02:21:37.925Z,19.80
2017-05-29T02:24:07.161Z,18.97
2017-05-29T02:26:35.493Z,19.95
2017-05-29T02:29:03.814Z,19.92
2017-05-29T02:31:32.177Z,19.83
2017-05-29T02:34:00.498Z,20.08
2017-05-29T02:36:28.863Z,20.12
2017-05-29T02:38:57.190Z,19.60
2017-05-29T02:41:26.950Z,19.90
2017-05-29T02:43:55.771Z,19.55
2017-05-29T02:46:24.139Z,19.32
2017-05-29T02:48:52.458Z,19.38
2017-05-29T02:51:21.159Z,18.25
2017-05-29T02:53:49.479Z,19.75
2017-05-29T02:56:17.802Z,18.22
2017-05-29T02:58:46.644Z,18.07
2017-05-29T03:01:14.971Z,19.57
2017-05-29T03:03:43.304Z,19.23
2017-05-29T03:06:11.958Z,17.73
2017-05-29T03:08:40.281Z,19.35
2017-05-29T03:11:08.602Z,19.33
2017-05-29T03:13:37.393Z,19.83
2017-05-29T03:16:05.709Z,19.13
2017-05-29T03:18:34.030Z,20.35
2017-05-29T03:21:02.465Z,19.47
2017-05-29T03:23:30.787Z,19.70
2017-05-29T03:25:59.877Z,18.15
2017-05-29T03:28:28.202Z,19.30
2017-05-29T03:30:55.754Z,20.20
2017-05-29T03:33:24.118Z,18.68
2017-05-29T03:35:52.466Z,19.97
2017-05-29T03:38:20.918Z,19.07
2017-05-29T03:40:49.246Z,18.20
2017-05-29T03:43:17.957Z,18.95
2017-05-29T03:45:46.425Z,18.72
2017-05-29T03:48:14.747Z,18.18
2017-05-29T03:50:43.121Z,18.97
2017-05-29T03:53:11.442Z,18.12
2017-05-29T03:55:40.151Z,19.55
2017-05-29T03:58:08.473Z,19.08
2017-05-29T04:00:36.823Z,18.93
2017-05-29T04:03:05.465Z,18.03
2017-05-29T04:05:33.790Z,18.40
2017-05-29T04:08:02.114Z,18.80
2017-05-29T04:10:30.621Z,17.58
2017-05-29T04:12:58.978Z,17.07
2017-05-29T04:15:27.297Z,17.22
2017-05-29T04:17:55.979Z,17.93
2017-05-29T04:20:24.302Z,17.82
2017-05-29T04:22:52.617Z,17.37
2017-05-29T04:25:20.982Z,18.13
2017-05-29T04:27:49.301Z,16.80
2017-05-29T04:30:17.942Z,17.37
2017-05-29T04:32:46.278Z,18.13
2017-05-29T04:35:14.825Z,17.22
2017-05-29T04:37:43.154Z,17.45
2017-05-29T04:40:11.473Z,17.13
2017-05-29T04:42:39.838Z,17.33
2017-05-29T04:45:08.157Z,17.73
2017-05-29T04:47:36.663Z,16.43
2017-05-29T04:50:04.998Z,16.43
2017-05-29T04:52:33.914Z,15.55
2017-05-29T04:55:02.257Z,16.77
2017-05-29T04:57:33.798Z,16.62
2017-05-29T05:00:02.217Z,16.42
2017-05-29T05:02:32.456Z,15.42
2017-05-29T05:05:00.782Z,15.75
2017-05-29T05:07:29.129Z,15.58
2017-05-29T05:09:57.790Z,15.12
2017-05-29T05:12:26.118Z,15.45
2017-05-29T05:14:54.445Z,15.20
2017-05-29T05:17:22.830Z,14.88
2017-05-29T05:19:51.158Z,15.55
2017-05-29T05:22:19.526Z,14.78
2017-05-29T05:24:47.875Z,14.23
2017-05-29T05:27:17.740Z,15.30
2017-05-29T05:29:46.066Z,15.18
2017-05-29T05:32:14.415Z,14.37
2017-05-29T05:34:42.799Z,14.64
2017-05-29T05:37:11.132Z,13.50
2017-05-29T05:39:40.308Z,12.92
2017-05-29T05:42:08.741Z,13.60
2017-05-29T05:44:37.066Z,12.77
2017-05-29T05:47:05.501Z,13.06
2017-05-29T05:49:33.875Z,12.90
2017-05-29T05:52:02.589Z,13.20
2017-05-29T05:54:30.915Z,13.10
2017-05-29T05:56:58.470Z,12.88
2017-05-29T05:59:26.994Z,12.85
2017-05-29T06:01:56.163Z,12.66
2017-05-29T06:04:24.542Z,13.42
2017-05-29T06:06:52.935Z,14.68
2017-05-29T06:09:21.249Z,13.32
2017-05-29T06:11:49.581Z,12.88
2017-05-29T06:14:17.946Z,12.08
2017-05-29T06:16:46.270Z,13.40
2017-05-29T06:19:14.693Z,13.02
2017-05-29T06:21:43.019Z,12.28
2017-05-29T06:24:11.794Z,20.22
2017-05-29T06:26:40.114Z,12.88
2017-05-29T06:29:08.433Z,13.00
2017-05-29T06:31:36.794Z,11.90
2017-05-29T06:34:05.258Z,11.68
2017-05-29T06:36:33.582Z,12.06
2017-05-29T06:39:01.966Z,11.74
2017-05-29T06:41:31.102Z,11.68
2017-05-29T06:43:59.425Z,11.30
2017-05-29T06:46:27.749Z,11.00
2017-05-29T06:48:56.445Z,11.78
2017-05-29T06:51:24.789Z,11.48
2017-05-29T06:53:53.128Z,10.88
2017-05-29T06:56:21.519Z,13.30
2017-05-29T06:58:50.473Z,11.50
2017-05-29T07:01:18.794Z,10.78
2017-05-29T07:03:51.335Z,9.96
2017-05-29T07:06:18.893Z,11.34
2017-05-29T07:08:47.238Z,12.42
2017-05-29T07:11:15.594Z,12.06
2017-05-29T07:13:43.907Z,10.96
2017-05-29T07:16:12.873Z,13.40
2017-05-29T07:18:41.189Z,11.22
2017-05-29T07:21:09.514Z,11.40
2017-05-29T07:23:38.344Z,11.42
2017-05-29T07:26:06.666Z,10.20
2017-05-29T07:28:34.987Z,10.52
2017-05-29T07:31:06.061Z,10.96
2017-05-29T07:33:34.422Z,11.06
2017-05-29T07:36:02.745Z,11.58
2017-05-29T07:38:31.210Z,10.72
2017-05-29T07:40:59.534Z,10.90
2017-05-29T07:43:27.869Z,11.66
2017-05-29T07:45:56.394Z,11.82
2017-05-29T07:48:24.709Z,10.56
2017-05-29T07:50:53.183Z,11.44
2017-05-29T07:53:21.514Z,10.52
2017-05-29T07:55:49.836Z,11.34
2017-05-29T07:58:18.238Z,10.14
2017-05-29T08:00:46.561Z,11.34
2017-05-29T08:03:14.989Z,11.26
2017-05-29T08:05:43.891Z,10.54
2017-05-29T08:08:12.249Z,10.90
2017-05-29T08:10:40.566Z,11.34
2017-05-29T08:13:09.092Z,10.14
2017-05-29T08:15:37.413Z,10.14
2017-05-29T08:18:05.730Z,10.68
2017-05-29T08:20:34.237Z,11.18
2017-05-29T08:23:02.549Z,11.10
2017-05-29T08:25:30.913Z,10.52
2017-05-29T08:27:59.226Z,10.70
2017-05-29T08:30:27.536Z,10.76
2017-05-29T08:32:55.898Z,11.00
2017-05-29T08:35:24.217Z,10.96
2017-05-29T08:37:52.101Z,9.72
2017-05-29T08:40:20.421Z,10.28
2017-05-29T08:42:49.170Z,10.36
2017-05-29T08:45:17.478Z,9.44
2017-05-29T08:47:45.798Z,9.96
2017-05-29T08:50:14.224Z,10.48
2017-05-29T08:52:42.538Z,10.44
2017-05-29T08:55:10.967Z,10.52
2017-05-29T08:57:39.285Z,9.96
2017-05-29T09:00:08.685Z,10.46
2017-05-29T09:02:37.103Z,10.08
2017-05-29T09:05:05.824Z,9.82
2017-05-29T09:07:34.143Z,10.06
2017-05-29T09:10:02.473Z,8.76
2017-05-29T09:12:30.885Z,9.92
2017-05-29T09:14:59.207Z,9.38
2017-05-29T09:17:27.920Z,8.16
2017-05-29T09:19:56.234Z,8.90
2017-05-29T09:22:24.580Z,9.10
2017-05-29T09:24:55.338Z,9.02
2017-05-29T09:27:23.645Z,9.44
2017-05-29T09:29:52.294Z,8.60
2017-05-29T09:32:19.834Z,8.82
2017-05-29T09:34:48.203Z,8.92
2017-05-29T09:37:16.532Z,8.04
2017-05-29T09:39:44.843Z,7.98
2017-05-29T09:42:13.198Z,7.90
2017-05-29T09:44:41.732Z,7.86
2017-05-29T09:47:10.282Z,7.66
2017-05-29T09:49:38.594Z,8.16
2017-05-29T09:52:06.955Z,7.86
2017-05-29T09:54:35.661Z,7.90
2017-05-29T09:57:03.978Z,8.24
2017-05-29T09:59:32.286Z,8.50
2017-05-29T10:02:00.901Z,7.66
2017-05-29T10:04:29.405Z,8.82
2017-05-29T10:06:57.009Z,8.92
2017-05-29T10:09:25.321Z,8.06
2017-05-29T10:11:53.669Z,8.20
2017-05-29T10:14:21.978Z,8.28
2017-05-29T10:16:50.482Z,8.24
2017-05-29T10:19:18.789Z,8.84
2017-05-29T10:21:47.425Z,8.12
2017-05-29T10:24:15.741Z,7.76
2017-05-29T10:26:44.060Z,6.94
2017-05-29T10:29:12.410Z,7.74
2017-05-29T10:31:40.718Z,7.58
2017-05-29T10:34:09.222Z,7.12
2017-05-29T10:36:37.541Z,6.98
2017-05-29T10:39:05.863Z,8.18
2017-05-29T10:41:34.756Z,7.64
2017-05-29T10:44:03.074Z,7.38
2017-05-29T10:46:31.389Z,7.90
2017-05-29T10:48:59.924Z,7.98
2017-05-29T10:51:28.314Z,9.42
2017-05-29T10:53:56.644Z,9.00
2017-05-29T10:56:24.993Z,8.50
2017-05-29T10:58:53.300Z,7.92
2017-05-29T11:01:21.650Z,7.32
2017-05-29T11:03:50.546Z,7.28
2017-05-29T11:06:18.854Z,7.02
2017-05-29T11:08:47.177Z,6.84
2017-05-29T11:11:15.694Z,6.96
2017-05-29T11:13:44.018Z,6.92
2017-05-29T11:16:12.329Z,8.66
2017-05-29T11:18:41.063Z,7.58
2017-05-29T11:21:09.373Z,6.30
2017-05-29T11:23:37.702Z,6.20
2017-05-29T11:26:06.717Z,5.72
2017-05-29T11:28:34.266Z,6.18
2017-05-29T11:31:02.590Z,6.14
2017-05-29T11:33:31.010Z,6.78
2017-05-29T11:35:59.557Z,6.72
2017-05-29T11:38:27.874Z,6.22
2017-05-29T11:40:56.602Z,6.84
2017-05-29T11:43:25.076Z,6.34
2017-05-29T11:45:53.381Z,5.80
2017-05-29T11:48:21.794Z,6.28
2017-05-29T11:50:50.298Z,6.24
2017-05-29T11:53:18.609Z,6.56
2017-05-29T11:55:46.919Z,6.44
2017-05-29T11:58:15.662Z,6.96
2017-05-29T12:00:43.985Z,6.36
2017-05-29T12:03:12.295Z,6.50
2017-05-29T12:05:40.717Z,6.46
2017-05-29T12:08:09.029Z,6.32
2017-05-29T12:10:37.382Z,6.70
2017-05-29T12:13:06.140Z,6.92
2017-05-29T12:15:34.445Z,6.58
2017-05-29T12:18:02.753Z,6.56
2017-05-29T12:20:31.269Z,6.56
2017-05-29T12:22:59.630Z,7.06
2017-05-29T12:25:27.938Z,6.66
2017-05-29T12:27:56.638Z,6.50
2017-05-29T12:30:25.860Z,6.88
2017-05-29T12:32:54.174Z,7.10
2017-05-29T12:35:22.529Z,7.04
2017-05-29T12:37:50.857Z,6.66
2017-05-29T12:40:19.377Z,8.96
2017-05-29T12:42:47.695Z,7.54
2017-05-29T12:45:16.009Z,6.72
2017-05-29T12:47:44.637Z,6.82
2017-05-29T12:50:12.949Z,7.08
2017-05-29T12:52:41.261Z,7.32
2017-05-29T12:55:10.318Z,7.34
2017-05-29T12:57:38.629Z,7.46
2017-05-29T13:00:06.949Z,7.40
2017-05-29T13:02:35.301Z,6.56
2017-05-29T13:05:04.397Z,7.52
2017-05-29T13:07:32.713Z,7.92
2017-05-29T13:10:01.314Z,6.88
2017-05-29T13:12:29.626Z,6.78
2017-05-29T13:14:57.173Z,6.62
2017-05-29T13:17:25.566Z,7.70
2017-05-29T13:19:53.914Z,6.78
2017-05-29T13:22:27.121Z,6.36
2017-05-29T13:24:55.438Z,6.78
2017-05-29T13:27:23.982Z,6.40
2017-05-29T13:29:52.302Z,6.30
2017-05-29T13:32:20.653Z,6.44
2017-05-29T13:34:49.324Z,6.34
2017-05-29T13:37:17.638Z,6.76
2017-05-29T13:39:45.946Z,6.90
2017-05-29T13:42:14.376Z,7.94
2017-05-29T13:44:42.749Z,4.84
2017-05-29T13:47:11.060Z,4.54
2017-05-29T13:49:39.386Z,4.60
2017-05-29T13:52:07.851Z,4.72
2017-05-29T13:54:36.165Z,5.94
2017-05-29T13:57:04.478Z,4.52
2017-05-29T13:59:34.570Z,4.84
2017-05-29T14:02:02.886Z,5.42
2017-05-29T14:04:31.206Z,4.56
2017-05-29T14:07:04.032Z,4.30
2017-05-29T14:09:32.346Z,11.94
2017-05-29T14:12:00.657Z,4.70
2017-05-29T14:14:29.079Z,4.74
2017-05-29T14:16:57.390Z,4.94
2017-05-29T14:19:25.710Z,5.12
2017-05-29T14:21:54.129Z,4.60
2017-05-29T14:24:22.446Z,4.98
2017-05-29T14:26:50.809Z,4.74
2017-05-29T14:29:19.145Z,4.24
2017-05-29T14:31:47.512Z,4.80
2017-05-29T14:34:15.866Z,4.38
2017-05-29T14:36:44.233Z,4.92
2017-05-29T14:39:12.931Z,3.94
2017-05-29T14:41:41.245Z,3.76
2017-05-29T14:44:09.557Z,4.06
2017-05-29T14:46:37.970Z,4.10
2017-05-29T14:49:06.278Z,3.96
2017-05-29T14:51:34.596Z,4.56
2017-05-29T14:54:02.979Z,6.74
2017-05-29T14:56:31.314Z,5.60
2017-05-29T14:58:59.624Z,4.88
2017-05-29T15:01:33.330Z,4.82
2017-05-29T15:04:01.645Z,4.98
2017-05-29T15:06:29.980Z,5.32
2017-05-29T15:09:04.200Z,5.48
2017-05-29T15:11:32.586Z,4.28
2017-05-29T15:14:00.897Z,4.64
2017-05-29T15:16:29.213Z,4.62
2017-05-29T15:18:57.675Z,5.00
2017-05-29T15:21:26.036Z,4.52
2017-05-29T15:23:54.362Z,4.82
2017-05-29T15:26:23.205Z,6.88
2017-05-29T15:28:51.532Z,5.66
2017-05-29T15:31:19.906Z,5.44
2017-05-29T15:33:48.312Z,5.38
2017-05-29T15:36:19.170Z,5.80
2017-05-29T15:38:47.479Z,5.30
2017-05-29T15:41:16.117Z,5.38
2017-05-29T15:43:44.430Z,5.54
2017-05-29T15:46:12.753Z,5.80
2017-05-29T15:48:41.244Z,5.66
2017-05-29T15:51:09.961Z,5.70
2017-05-29T15:53:38.269Z,5.84
2017-05-29T15:56:06.582Z,5.76
2017-05-29T15:58:34.933Z,6.90
2017-05-29T16:01:03.692Z,5.12
2017-05-29T16:03:32.008Z,5.42
2017-05-29T16:06:00.319Z,5.40
2017-05-29T16:08:29.201Z,5.74
2017-05-29T16:10:57.864Z,5.42
2017-05-29T16:13:26.171Z,5.92
2017-05-29T16:15:54.566Z,5.86
2017-05-29T16:18:22.880Z,5.78
2017-05-29T16:20:51.194Z,6.16
2017-05-29T16:23:19.554Z,6.30
2017-05-29T16:25:47.870Z,6.28
2017-05-29T16:28:17.067Z,6.16
2017-05-29T16:30:45.373Z,5.42
2017-05-29T16:33:13.682Z,6.24
2017-05-29T16:35:42.034Z,5.92
2017-05-29T16:38:10.354Z,5.82
2017-05-29T16:40:38.714Z,5.48
2017-05-29T16:43:07.045Z,5.66
2017-05-29T16:45:35.602Z,5.84
2017-05-29T16:48:03.992Z,5.62
2017-05-29T16:50:32.303Z,5.34
2017-05-29T16:53:00.618Z,5.82
2017-05-29T16:55:29.473Z,5.80
2017-05-29T16:57:57.785Z,5.88
2017-05-29T17:00:26.094Z,6.34
2017-05-29T17:02:54.914Z,6.30
2017-05-29T17:05:23.379Z,6.12
2017-05-29T17:07:51.687Z,6.64
2017-05-29T17:10:20.041Z,7.38
2017-05-29T17:12:48.355Z,6.70
2017-05-29T17:15:17.019Z,7.40
2017-05-29T17:17:45.343Z,7.28
2017-05-29T17:20:13.662Z,8.08
2017-05-29T17:22:42.357Z,6.88
2017-05-29T17:25:10.669Z,7.10
2017-05-29T17:27:38.987Z,7.30
2017-05-29T17:30:07.805Z,8.46
2017-05-29T17:32:36.120Z,7.74
2017-05-29T17:35:04.435Z,9.90
2017-05-29T17:37:32.853Z,7.96
2017-05-29T17:40:01.201Z,8.66
2017-05-29T17:42:29.515Z,8.86
2017-05-29T17:44:57.906Z,8.16
2017-05-29T17:47:26.219Z,8.70
2017-05-29T17:49:54.594Z,8.78
2017-05-29T17:52:22.907Z,8.42
2017-05-29T17:54:51.231Z,8.52
2017-05-29T17:57:19.725Z,8.60
2017-05-29T17:59:48.031Z,8.48
2017-05-29T18:02:16.678Z,8.06
2017-05-29T18:04:44.995Z,8.68
2017-05-29T18:07:13.562Z,8.82
2017-05-29T18:09:41.914Z,8.70
2017-05-29T18:12:10.949Z,8.74
2017-05-29T18:14:39.301Z,9.10
2017-05-29T18:17:08.154Z,9.34
2017-05-29T18:19:36.466Z,9.10
2017-05-29T18:22:04.778Z,10.14
2017-05-29T18:24:33.181Z,9.72
2017-05-29T18:27:01.549Z,9.44
2017-05-29T18:29:29.859Z,9.66
2017-05-29T18:31:58.222Z,9.66
2017-05-29T18:34:28.666Z,10.54
2017-05-29T18:36:56.978Z,10.16
2017-05-29T18:39:25.293Z,11.18
2017-05-29T18:41:53.710Z,11.22
2017-05-29T18:44:22.329Z,13.26
2017-05-29T18:46:50.641Z,10.68
2017-05-29T18:49:18.410Z,10.32
2017-05-29T18:51:46.731Z,10.50
2017-05-29T18:54:15.046Z,11.28
2017-05-29T18:56:43.753Z,11.14
2017-05-29T18:59:12.088Z,11.60
2017-05-29T19:01:40.414Z,11.20
2017-05-29T19:04:09.098Z,11.16
2017-05-29T19:06:37.722Z,11.44
2017-05-29T19:09:06.035Z,10.54
2017-05-29T19:11:34.354Z,10.80
2017-05-29T19:14:02.710Z,13.20
2017-05-29T19:16:31.026Z,14.54
2017-05-29T19:19:02.101Z,11.12
2017-05-29T19:21:30.417Z,13.60
2017-05-29T19:23:58.738Z,11.36
2017-05-29T19:26:27.590Z,11.66
2017-05-29T19:28:55.906Z,10.94
2017-05-29T19:31:24.221Z,11.04
2017-05-29T19:33:52.582Z,12.14
2017-05-29T19:36:21.306Z,11.76
2017-05-29T19:38:49.622Z,13.14
2017-05-29T19:41:17.942Z,11.90
2017-05-29T19:43:46.673Z,12.02
2017-05-29T19:46:15.296Z,11.84
2017-05-29T19:48:43.619Z,12.08
2017-05-29T19:51:12.046Z,12.08
2017-05-29T19:53:40.933Z,12.34
2017-05-29T19:56:09.302Z,11.64
2017-05-29T19:58:37.669Z,12.90
2017-05-29T20:01:06.530Z,13.52
2017-05-29T20:03:34.850Z,12.20
2017-05-29T20:06:03.163Z,15.50
2017-05-29T20:08:31.517Z,13.60
2017-05-29T20:10:59.874Z,12.32
2017-05-29T20:13:28.186Z,13.80
2017-05-29T20:15:56.545Z,12.50
2017-05-29T20:18:24.869Z,13.42
2017-05-29T20:20:53.295Z,12.56
2017-05-29T20:23:21.656Z,13.46
2017-05-29T20:25:50.042Z,12.56
2017-05-29T20:28:18.370Z,12.70
2017-05-29T20:30:46.691Z,12.50
2017-05-29T20:33:15.056Z,12.18
2017-05-29T20:35:43.373Z,13.76
2017-05-29T20:38:15.814Z,13.16
2017-05-29T20:40:44.133Z,13.56
2017-05-29T20:43:12.450Z,13.74
2017-05-29T20:45:41.160Z,12.78
2017-05-29T20:48:09.561Z,13.40
2017-05-29T20:50:37.887Z,13.80
2017-05-29T20:53:06.210Z,13.74
2017-05-29T20:55:38.486Z,12.62
2017-05-29T20:58:06.806Z,14.00
2017-05-29T21:00:35.121Z,14.40
2017-05-29T21:03:03.482Z,15.64
2017-05-29T21:05:31.802Z,14.68
2017-05-29T21:08:00.165Z,14.48
2017-05-29T21:10:28.485Z,15.06
2017-05-29T21:12:56.990Z,15.88
2017-05-29T21:15:25.310Z,13.82
2017-05-29T21:17:53.678Z,13.42
2017-05-29T21:20:22.012Z,13.98
2017-05-29T21:22:50.370Z,13.92
2017-05-29T21:25:18.727Z,13.66
2017-05-29T21:27:47.082Z,13.56
2017-05-29T21:30:16.082Z,14.18
2017-05-29T21:32:44.405Z,14.68
2017-05-29T21:35:12.723Z,14.34
2017-05-29T21:37:41.086Z,14.44
2017-05-29T21:40:09.910Z,14.14
2017-05-29T21:42:38.229Z,14.34
2017-05-29T21:45:06.549Z,14.46
2017-05-29T21:47:35.432Z,14.02
2017-05-29T21:50:05.069Z,15.76
2017-05-29T21:52:33.389Z,15.70
2017-05-29T21:55:02.236Z,15.32
2017-05-29T21:57:30.554Z,14.30
2017-05-29T21:59:58.878Z,15.02
2017-05-29T22:02:27.586Z,15.68
2017-05-29T22:04:55.902Z,14.94
2017-05-29T22:07:24.217Z,15.34
2017-05-29T22:09:52.786Z,16.24
2017-05-29T22:12:21.106Z,16.00
2017-05-29T22:14:49.426Z,16.58
2017-05-29T22:17:18.314Z,16.48
2017-05-29T22:19:46.627Z,16.26
2017-05-29T22:22:14.975Z,16.76
2017-05-29T22:24:43.338Z,16.86
2017-05-29T22:27:11.813Z,17.18
2017-05-29T22:29:40.178Z,17.52
2017-05-29T22:32:07.738Z,17.54
2017-05-29T22:34:36.455Z,16.16
2017-05-29T22:37:04.777Z,16.92
2017-05-29T22:39:33.093Z,15.68
2017-05-29T22:42:01.445Z,15.20
2017-05-29T22:44:29.767Z,15.50
2017-05-29T22:46:58.426Z,17.34
2017-05-29T22:49:27.089Z,16.98
2017-05-29T22:51:54.649Z,16.96
2017-05-29T22:54:22.970Z,15.40
2017-05-29T22:56:51.330Z,15.60
2017-05-29T22:59:19.649Z,16.30
2017-05-29T23:01:48.481Z,16.14
2017-05-29T23:04:16.798Z,22.00
2017-05-29T23:06:45.116Z,20.08
2017-05-29T23:09:13.474Z,23.80
2017-05-29T23:11:42.147Z,25.42
2017-05-29T23:14:10.464Z,23.82
2017-05-29T23:16:38.785Z,21.68
2017-05-29T23:19:07.656Z,22.50
2017-05-29T23:21:35.218Z,24.44
2017-05-29T23:24:03.533Z,28.18
2017-05-29T23:26:32.278Z,27.64
2017-05-29T23:29:00.601Z,23.84
2017-05-29T23:31:28.924Z,20.88
2017-05-29T23:33:57.937Z,20.74
2017-05-29T23:36:26.253Z,23.52
2017-05-29T23:38:54.582Z,22.20
2017-05-29T23:41:22.182Z,28.64
2017-05-29T23:43:50.508Z,26.12
2017-05-29T23:46:19.394Z,27.50
2017-05-29T23:48:47.794Z,26.58
2017-05-29T23:51:16.119Z,27.66
2017-05-29T23:53:44.442Z,37.94
2017-05-29T23:56:13.146Z,33.30
2017-05-29T23:58:41.521Z,34.96
